createdAt,value
2018-08-23T00:01:31.633Z,18.30
2018-08-23T00:04:06.204Z,18.30
2018-08-23T00:06:34.674Z,18.30
2018-08-23T00:09:03.155Z,18.20
2018-08-23T00:11:34.960Z,18.20
2018-08-23T00:14:03.249Z,18.20
2018-08-23T00:16:46.807Z,18.20
2018-08-23T00:19:16.089Z,18.20
2018-08-23T00:21:46.614Z,18.10
2018-08-23T00:24:17.125Z,18.10
2018-08-23T00:26:47.668Z,18.00
2018-08-23T00:29:21.473Z,18.00
2018-08-23T00:31:52.412Z,18.00
2018-08-23T00:34:21.881Z,17.90
2018-08-23T00:36:50.199Z,17.80
2018-08-23T00:39:18.484Z,17.80
2018-08-23T00:41:53.064Z,17.80
2018-08-23T00:44:21.289Z,17.70
2018-08-23T00:46:49.568Z,17.70
2018-08-23T00:49:18.367Z,17.60
2018-08-23T00:51:47.225Z,17.60
2018-08-23T00:54:16.386Z,17.60
2018-08-23T00:56:45.684Z,17.60
2018-08-23T00:59:16.141Z,17.60
2018-08-23T01:02:00.044Z,17.60
2018-08-23T01:04:29.305Z,17.60
2018-08-23T01:06:57.560Z,17.50
2018-08-23T01:09:27.100Z,17.50
2018-08-23T01:11:55.881Z,17.50
2018-08-23T01:14:24.252Z,17.50
2018-08-23T01:17:06.328Z,17.50
2018-08-23T01:20:06.378Z,17.50
2018-08-23T01:22:34.736Z,17.50
2018-08-23T01:25:03.456Z,17.40
2018-08-23T01:27:37.639Z,17.40
2018-08-23T01:30:06.665Z,17.30
2018-08-23T01:32:34.948Z,17.30
2018-08-23T01:35:03.728Z,17.20
2018-08-23T01:37:38.111Z,17.20
2018-08-23T01:40:08.056Z,17.20
2018-08-23T01:42:37.380Z,17.10
2018-08-23T01:45:06.820Z,17.10
2018-08-23T01:48:11.533Z,17.10
2018-08-23T01:50:40.425Z,17.00
2018-08-23T01:53:08.659Z,17.00
2018-08-23T01:55:37.007Z,17.00
2018-08-23T01:58:05.504Z,17.00
2018-08-23T02:00:36.017Z,17.00
2018-08-23T02:03:04.713Z,17.00
2018-08-23T02:05:33.090Z,17.00
2018-08-23T02:08:01.476Z,17.00
2018-08-23T02:10:29.773Z,16.90
2018-08-23T02:12:58.643Z,16.90
2018-08-23T02:15:35.263Z,16.90
2018-08-23T02:18:03.981Z,16.90
2018-08-23T02:20:32.327Z,16.80
2018-08-23T02:23:00.997Z,16.80
2018-08-23T02:25:29.249Z,16.70
2018-08-23T02:27:59.660Z,16.70
2018-08-23T02:30:42.847Z,16.60
2018-08-23T02:33:13.200Z,16.60
2018-08-23T02:35:51.725Z,16.70
2018-08-23T02:38:19.962Z,16.60
2018-08-23T02:40:48.288Z,16.60
2018-08-23T02:43:17.361Z,16.50
2018-08-23T02:45:52.397Z,16.50
2018-08-23T02:48:21.417Z,16.50
2018-08-23T02:50:50.460Z,16.40
2018-08-23T02:53:29.321Z,16.40
2018-08-23T02:56:02.203Z,16.40
2018-08-23T02:58:31.212Z,16.40
2018-08-23T03:01:02.282Z,16.40
2018-08-23T03:03:30.533Z,16.40
2018-08-23T03:05:58.791Z,16.40
2018-08-23T03:08:46.013Z,16.40
2018-08-23T03:11:15.484Z,16.40
2018-08-23T03:13:45.014Z,16.30
2018-08-23T03:16:14.333Z,16.30
2018-08-23T03:18:44.020Z,16.30
2018-08-23T03:21:13.456Z,16.30
2018-08-23T03:23:45.410Z,16.20
2018-08-23T03:26:13.960Z,16.20
2018-08-23T03:28:42.482Z,16.30
2018-08-23T03:31:11.161Z,16.20
2018-08-23T03:33:39.427Z,16.20
2018-08-23T03:36:07.676Z,16.20
2018-08-23T03:38:35.970Z,16.10
2018-08-23T03:41:04.368Z,16.10
2018-08-23T03:43:32.812Z,16.10
2018-08-23T03:46:01.130Z,16.10
2018-08-23T03:48:29.329Z,16.10
2018-08-23T03:50:57.651Z,16.00
2018-08-23T03:53:40.614Z,16.10
2018-08-23T03:56:09.591Z,16.10
2018-08-23T03:58:37.857Z,16.00
2018-08-23T04:01:11.374Z,16.00
2018-08-23T04:03:39.656Z,16.00
2018-08-23T04:06:24.014Z,15.90
2018-08-23T04:08:52.265Z,15.90
2018-08-23T04:11:21.110Z,15.90
2018-08-23T04:13:49.846Z,16.00
2018-08-23T04:16:27.048Z,16.00
2018-08-23T04:18:55.889Z,16.00
2018-08-23T04:21:24.114Z,16.00
2018-08-23T04:23:52.429Z,16.00
2018-08-23T04:26:21.218Z,16.00
2018-08-23T04:28:49.652Z,16.00
2018-08-23T04:31:19.882Z,16.00
2018-08-23T04:33:48.248Z,16.00
2018-08-23T04:36:30.209Z,16.00
2018-08-23T04:39:07.796Z,16.00
2018-08-23T04:41:35.997Z,16.00
2018-08-23T04:44:14.342Z,16.00
2018-08-23T04:46:43.382Z,16.00
2018-08-23T04:49:11.667Z,16.00
2018-08-23T04:51:39.897Z,16.00
2018-08-23T04:54:08.133Z,16.00
2018-08-23T04:56:36.428Z,16.00
2018-08-23T04:59:04.722Z,15.90
2018-08-23T05:01:33.060Z,15.90
2018-08-23T05:04:01.352Z,15.90
2018-08-23T05:06:29.589Z,15.90
2018-08-23T05:08:57.827Z,15.90
2018-08-23T05:11:26.401Z,15.90
2018-08-23T05:13:54.708Z,15.90
2018-08-23T05:16:22.913Z,16.00
2018-08-23T05:18:51.395Z,16.00
2018-08-23T05:21:20.213Z,16.00
2018-08-23T05:23:48.785Z,16.10
2018-08-23T05:26:18.574Z,16.10
2018-08-23T05:28:59.363Z,16.20
2018-08-23T05:31:28.955Z,16.20
2018-08-23T05:34:02.673Z,16.30
2018-08-23T05:36:30.917Z,16.30
2018-08-23T05:38:59.706Z,16.40
2018-08-23T05:41:28.013Z,16.40
2018-08-23T05:44:01.531Z,16.50
2018-08-23T05:46:31.745Z,16.60
2018-08-23T05:49:00.618Z,16.70
2018-08-23T05:51:29.922Z,16.70
2018-08-23T05:53:58.314Z,16.80
2018-08-23T05:56:27.127Z,17.00
2018-08-23T05:58:59.649Z,17.50
2018-08-23T06:01:28.089Z,17.80
2018-08-23T06:03:56.460Z,18.00
2018-08-23T06:06:24.794Z,18.20
2018-08-23T06:08:57.257Z,18.50
2018-08-23T06:11:25.522Z,18.90
2018-08-23T06:13:53.846Z,19.40
2018-08-23T06:16:22.206Z,19.40
2018-08-23T06:18:50.682Z,19.40
2018-08-23T06:21:19.086Z,19.20
2018-08-23T06:23:55.570Z,19.20
2018-08-23T06:26:37.225Z,19.10
2018-08-23T06:29:05.604Z,19.10
2018-08-23T06:31:33.962Z,19.10
2018-08-23T06:34:02.541Z,19.10
2018-08-23T06:36:35.277Z,19.10
2018-08-23T06:39:05.294Z,19.10
2018-08-23T06:41:33.873Z,19.10
2018-08-23T06:44:02.212Z,19.20
2018-08-23T06:46:30.520Z,19.20
2018-08-23T06:48:58.863Z,19.30
2018-08-23T06:51:27.029Z,19.40
2018-08-23T06:53:59.612Z,19.70
2018-08-23T06:56:27.902Z,19.80
2018-08-23T06:58:56.258Z,19.70
2018-08-23T07:01:38.028Z,19.70
2018-08-23T07:04:12.173Z,19.70
2018-08-23T07:06:40.510Z,19.80
2018-08-23T07:09:17.113Z,19.70
2018-08-23T07:11:45.908Z,19.60
2018-08-23T07:14:16.759Z,19.60
2018-08-23T07:16:46.641Z,19.70
2018-08-23T07:19:27.656Z,19.80
2018-08-23T07:21:56.537Z,19.90
2018-08-23T07:24:37.237Z,20.00
2018-08-23T07:27:08.109Z,20.20
2018-08-23T07:29:36.330Z,20.60
2018-08-23T07:32:07.177Z,20.80
2018-08-23T07:34:35.699Z,21.00
2018-08-23T07:37:23.680Z,21.10
2018-08-23T07:39:57.555Z,21.20
2018-08-23T07:42:27.856Z,21.30
2018-08-23T07:44:56.548Z,21.40
2018-08-23T07:47:24.860Z,21.70
2018-08-23T07:49:54.956Z,21.80
2018-08-23T07:52:23.634Z,22.00
2018-08-23T07:54:52.110Z,22.60
2018-08-23T07:57:20.648Z,23.10
2018-08-23T07:59:49.555Z,23.70
2018-08-23T08:02:17.982Z,24.70
2018-08-23T08:04:46.543Z,25.00
2018-08-23T08:07:19.171Z,25.80
2018-08-23T08:09:47.567Z,25.90
2018-08-23T08:12:21.301Z,26.10
2018-08-23T08:14:49.744Z,26.40
2018-08-23T08:17:23.503Z,25.80
2018-08-23T08:19:55.253Z,25.10
2018-08-23T08:22:23.603Z,25.00
2018-08-23T08:25:02.915Z,24.70
2018-08-23T08:27:31.448Z,25.00
2018-08-23T08:29:59.667Z,24.40
2018-08-23T08:32:27.939Z,24.00
2018-08-23T08:34:57.660Z,23.90
2018-08-23T08:37:26.549Z,24.00
2018-08-23T08:39:54.780Z,24.10
2018-08-23T08:42:29.831Z,24.20
2018-08-23T08:45:03.590Z,24.30
2018-08-23T08:47:32.168Z,24.60
2018-08-23T08:50:00.382Z,25.00
2018-08-23T08:52:29.085Z,25.10
2018-08-23T08:54:57.332Z,25.00
2018-08-23T08:57:30.365Z,25.10
2018-08-23T08:59:59.023Z,25.30
2018-08-23T09:02:29.555Z,25.40
2018-08-23T09:04:57.745Z,25.60
2018-08-23T09:07:28.503Z,25.90
2018-08-23T09:09:56.833Z,25.90
2018-08-23T09:12:24.996Z,26.00
2018-08-23T09:14:53.210Z,26.20
2018-08-23T09:17:37.972Z,26.30
2018-08-23T09:20:09.347Z,26.30
2018-08-23T09:22:41.046Z,26.40
2018-08-23T09:25:12.688Z,26.50
2018-08-23T09:27:40.909Z,26.80
2018-08-23T09:30:14.623Z,27.20
2018-08-23T09:32:43.773Z,27.70
2018-08-23T09:35:12.111Z,28.80
2018-08-23T09:37:40.948Z,28.60
2018-08-23T09:40:09.292Z,28.30
2018-08-23T09:42:38.111Z,28.00
2018-08-23T09:45:10.110Z,28.00
2018-08-23T09:47:38.438Z,28.00
2018-08-23T09:50:06.725Z,28.20
2018-08-23T09:52:42.210Z,28.50
2018-08-23T09:55:12.677Z,28.60
2018-08-23T09:57:41.363Z,28.60
2018-08-23T10:00:10.865Z,28.30
2018-08-23T10:02:44.488Z,28.60
2018-08-23T10:05:18.169Z,28.50
2018-08-23T10:07:51.873Z,28.30
2018-08-23T10:10:25.433Z,28.60
2018-08-23T10:12:59.149Z,28.90
2018-08-23T10:15:32.855Z,28.80
2018-08-23T10:18:06.497Z,28.70
2018-08-23T10:20:45.321Z,28.80
2018-08-23T10:23:16.472Z,29.00
2018-08-23T10:25:47.650Z,29.10
2018-08-23T10:28:17.739Z,29.30
2018-08-23T10:30:46.335Z,29.50
2018-08-23T10:33:15.797Z,29.10
2018-08-23T10:35:46.533Z,29.00
2018-08-23T10:38:17.661Z,29.10
2018-08-23T10:40:47.348Z,29.00
2018-08-23T10:43:16.485Z,28.80
2018-08-23T10:45:45.721Z,28.90
2018-08-23T10:48:16.349Z,28.80
2018-08-23T10:50:46.729Z,28.60
2018-08-23T10:53:15.461Z,28.40
2018-08-23T10:55:45.415Z,28.80
2018-08-23T10:58:14.544Z,29.30
2018-08-23T11:00:43.837Z,29.50
2018-08-23T11:03:12.602Z,29.70
2018-08-23T11:05:41.451Z,30.00
2018-08-23T11:08:15.454Z,29.40
2018-08-23T11:10:51.616Z,29.50
2018-08-23T11:13:25.275Z,29.40
2018-08-23T11:15:58.913Z,29.20
2018-08-23T11:18:33.268Z,29.10
2018-08-23T11:21:01.965Z,29.20
2018-08-23T11:23:30.202Z,29.00
2018-08-23T11:25:58.463Z,29.00
2018-08-23T11:28:27.238Z,28.90
2018-08-23T11:30:59.724Z,28.80
2018-08-23T11:33:39.009Z,28.80
2018-08-23T11:36:09.304Z,28.80
2018-08-23T11:38:38.452Z,28.90
2018-08-23T11:41:06.777Z,28.90
2018-08-23T11:43:35.040Z,29.20
2018-08-23T11:46:08.520Z,29.40
2018-08-23T11:48:37.700Z,29.40
2018-08-23T11:51:05.936Z,29.40
2018-08-23T11:53:34.638Z,29.10
2018-08-23T11:56:03.491Z,29.00
2018-08-23T11:58:31.845Z,29.10
2018-08-23T12:01:05.295Z,29.20
2018-08-23T12:03:33.542Z,29.10
2018-08-23T12:06:01.874Z,29.00
2018-08-23T12:08:30.131Z,29.10
2018-08-23T12:10:58.364Z,29.30
2018-08-23T12:13:26.606Z,29.50
2018-08-23T12:15:54.927Z,29.30
2018-08-23T12:18:23.644Z,29.10
2018-08-23T12:20:51.871Z,28.80
2018-08-23T12:23:20.102Z,28.70
2018-08-23T12:25:48.857Z,28.80
2018-08-23T12:28:22.408Z,28.90
2018-08-23T12:30:50.670Z,29.10
2018-08-23T12:33:18.885Z,29.40
2018-08-23T12:35:47.158Z,29.50
2018-08-23T12:38:21.612Z,29.60
2018-08-23T12:40:55.315Z,29.60
2018-08-23T12:43:56.268Z,29.50
2018-08-23T12:46:24.509Z,29.20
2018-08-23T12:48:56.591Z,28.90
2018-08-23T12:51:24.878Z,28.90
2018-08-23T12:53:53.208Z,29.10
2018-08-23T12:56:21.550Z,29.30
2018-08-23T12:58:49.837Z,29.30
2018-08-23T13:01:18.269Z,29.20
2018-08-23T13:03:46.775Z,29.20
2018-08-23T13:06:15.046Z,29.10
2018-08-23T13:08:44.845Z,29.10
2018-08-23T13:11:14.399Z,29.20
2018-08-23T13:13:43.521Z,29.30
2018-08-23T13:16:12.506Z,29.40
2018-08-23T13:18:40.789Z,29.60
2018-08-23T13:21:09.589Z,29.90
2018-08-23T13:23:42.054Z,29.90
2018-08-23T13:26:10.333Z,30.00
2018-08-23T13:28:38.641Z,29.70
2018-08-23T13:31:06.885Z,29.70
2018-08-23T13:33:35.186Z,29.90
2018-08-23T13:36:03.556Z,29.90
2018-08-23T13:38:31.796Z,30.00
2018-08-23T13:41:00.089Z,30.10
2018-08-23T13:43:28.384Z,29.80
2018-08-23T13:45:56.601Z,29.90
2018-08-23T13:48:24.979Z,29.90
2018-08-23T13:50:53.072Z,30.10
2018-08-23T13:53:21.293Z,30.20
2018-08-23T13:55:49.569Z,30.40
2018-08-23T13:58:17.866Z,30.60
2018-08-23T14:00:46.475Z,30.80
2018-08-23T14:03:16.290Z,30.60
2018-08-23T14:05:46.220Z,30.30
2018-08-23T14:08:14.872Z,29.90
2018-08-23T14:10:44.329Z,29.70
2018-08-23T14:13:13.907Z,29.90
2018-08-23T14:15:47.444Z,30.00
2018-08-23T14:18:15.889Z,29.90
2018-08-23T14:20:45.265Z,30.10
2018-08-23T14:23:14.352Z,29.90
2018-08-23T14:25:43.381Z,30.00
2018-08-23T14:28:11.685Z,30.10
2018-08-23T14:30:40.599Z,30.10
2018-08-23T14:33:08.877Z,30.10
2018-08-23T14:35:37.296Z,30.20
2018-08-23T14:38:05.633Z,30.00
2018-08-23T14:40:33.901Z,30.10
2018-08-23T14:43:02.176Z,30.30
2018-08-23T14:45:32.010Z,30.50
2018-08-23T14:48:05.675Z,30.40
2018-08-23T14:50:35.045Z,30.10
2018-08-23T14:53:03.773Z,29.90
2018-08-23T14:55:37.427Z,29.70
2018-08-23T14:58:05.920Z,29.70
2018-08-23T15:00:34.201Z,29.70
2018-08-23T15:03:02.490Z,29.70
2018-08-23T15:05:30.741Z,29.80
2018-08-23T15:07:59.063Z,29.80
2018-08-23T15:10:27.297Z,29.90
2018-08-23T15:12:55.585Z,30.00
2018-08-23T15:15:29.204Z,29.90
2018-08-23T15:17:57.466Z,29.90
2018-08-23T15:20:25.725Z,29.80
2018-08-23T15:22:54.001Z,29.80
2018-08-23T15:25:22.294Z,29.70
2018-08-23T15:27:50.560Z,29.60
2018-08-23T15:30:18.851Z,29.60
2018-08-23T15:32:47.136Z,29.50
2018-08-23T15:35:15.520Z,29.60
2018-08-23T15:37:44.981Z,29.80
2018-08-23T15:40:14.419Z,30.10
2018-08-23T15:42:47.244Z,30.00
2018-08-23T15:45:16.007Z,30.00
2018-08-23T15:47:45.422Z,29.90
2018-08-23T15:50:14.367Z,29.90
2018-08-23T15:52:45.227Z,29.90
2018-08-23T15:55:14.498Z,29.80
2018-08-23T15:57:43.796Z,29.80
2018-08-23T16:00:12.073Z,29.70
2018-08-23T16:02:40.321Z,29.60
2018-08-23T16:05:08.606Z,29.40
2018-08-23T16:07:37.067Z,29.30
2018-08-23T16:10:06.614Z,29.20
2018-08-23T16:12:34.865Z,29.00
2018-08-23T16:15:07.402Z,28.90
2018-08-23T16:17:41.092Z,28.90
2018-08-23T16:20:14.919Z,28.90
2018-08-23T16:22:47.467Z,28.80
2018-08-23T16:25:15.787Z,28.70
2018-08-23T16:27:44.912Z,28.60
2018-08-23T16:30:13.877Z,28.50
2018-08-23T16:32:42.152Z,28.30
2018-08-23T16:35:10.530Z,28.10
2018-08-23T16:37:38.879Z,27.30
2018-08-23T16:40:07.256Z,26.50
2018-08-23T16:42:35.539Z,25.90
2018-08-23T16:45:05.095Z,25.30
2018-08-23T16:47:33.524Z,24.90
2018-08-23T16:50:01.873Z,25.00
2018-08-23T16:52:30.273Z,25.30
2018-08-23T16:54:58.519Z,25.70
2018-08-23T16:57:26.814Z,25.90
2018-08-23T16:59:55.045Z,26.00
2018-08-23T17:02:23.279Z,25.90
2018-08-23T17:04:51.744Z,25.90
2018-08-23T17:07:20.028Z,25.90
2018-08-23T17:09:48.268Z,25.80
2018-08-23T17:12:16.723Z,25.70
2018-08-23T17:14:45.103Z,25.80
2018-08-23T17:19:55.922Z,26.10
2018-08-23T17:22:24.155Z,26.10
2018-08-23T17:24:52.416Z,26.20
2018-08-23T17:27:20.638Z,26.10
2018-08-23T17:29:48.802Z,26.00
2018-08-23T17:32:16.957Z,25.90
2018-08-23T17:34:45.123Z,25.90
2018-08-23T17:37:13.279Z,25.80
2018-08-23T17:39:41.470Z,25.60
2018-08-23T17:42:09.608Z,25.50
2018-08-23T17:44:37.809Z,25.40
2018-08-23T17:47:06.115Z,25.20
2018-08-23T17:49:34.292Z,25.10
2018-08-23T17:52:02.736Z,25.00
2018-08-23T17:54:30.924Z,24.80
2018-08-23T17:56:59.089Z,24.80
2018-08-23T18:13:10.512Z,24.70
2018-08-23T18:15:44.048Z,24.40
2018-08-23T18:18:12.256Z,24.40
2018-08-23T18:20:40.456Z,24.40
2018-08-23T18:23:09.977Z,24.40
2018-08-23T18:25:38.248Z,24.30
2018-08-23T18:28:08.025Z,24.30
2018-08-23T18:30:36.308Z,24.20
2018-08-23T18:33:04.532Z,24.20
2018-08-23T18:35:32.841Z,24.10
2018-08-23T18:38:01.035Z,24.10
2018-08-23T18:40:29.245Z,24.00
2018-08-23T18:42:57.436Z,24.00
2018-08-23T18:45:25.743Z,23.90
2018-08-23T18:47:53.956Z,23.70
2018-08-23T18:50:22.364Z,23.60
2018-08-23T18:52:50.538Z,23.50
2018-08-23T18:55:18.768Z,23.30
2018-08-23T18:57:47.636Z,23.00
2018-08-23T19:00:15.970Z,22.90
2018-08-23T19:05:26.392Z,22.60
2018-08-23T19:07:54.617Z,22.60
2018-08-23T19:10:22.803Z,22.40
2018-08-23T19:12:51.047Z,22.30
2018-08-23T19:15:24.687Z,21.90
2018-08-23T19:17:52.871Z,21.50
2018-08-23T19:20:21.120Z,21.20
2018-08-23T19:22:49.273Z,20.80
2018-08-23T19:25:17.553Z,20.50
2018-08-23T19:27:45.741Z,20.30
2018-08-23T19:30:14.169Z,20.00
2018-08-23T19:32:42.353Z,19.90
2018-08-23T19:35:10.617Z,19.80
2018-08-23T19:37:38.763Z,19.70
2018-08-23T19:40:06.919Z,19.80
2018-08-23T19:42:35.289Z,19.80
2018-08-23T19:45:03.447Z,19.80
2018-08-23T19:47:36.892Z,19.90
2018-08-23T19:50:12.103Z,19.80
2018-08-23T19:52:40.256Z,19.80
2018-08-23T19:55:09.288Z,19.70
2018-08-23T19:57:37.483Z,19.70
2018-08-23T20:00:07.104Z,19.70
2018-08-23T20:02:35.306Z,19.60
2018-08-23T20:05:03.521Z,19.60
2018-08-23T20:07:31.733Z,19.60
2018-08-23T20:09:59.928Z,19.60
2018-08-23T20:12:28.202Z,19.50
2018-08-23T20:14:56.356Z,19.50
2018-08-23T20:17:25.316Z,19.50
2018-08-23T20:19:53.550Z,19.40
2018-08-23T20:22:21.766Z,19.40
2018-08-23T20:24:50.035Z,19.40
2018-08-23T20:27:18.234Z,19.40
2018-08-23T20:29:46.450Z,19.40
2018-08-23T20:32:14.736Z,19.40
2018-08-23T20:34:42.926Z,19.30
2018-08-23T20:37:11.230Z,19.30
2018-08-23T20:39:39.563Z,19.20
2018-08-23T20:42:07.693Z,19.20
2018-08-23T20:44:35.896Z,19.20
2018-08-23T20:47:31.313Z,19.20
2018-08-23T20:50:00.106Z,19.10
2018-08-23T20:52:28.687Z,19.10
2018-08-23T20:54:57.526Z,18.90
2018-08-23T20:57:26.261Z,18.90
2018-08-23T20:59:56.369Z,18.80
2018-08-23T21:02:25.387Z,18.80
2018-08-23T21:04:53.944Z,18.70
2018-08-23T21:07:24.563Z,18.70
2018-08-23T21:09:53.269Z,18.70
2018-08-23T21:12:24.163Z,18.70
2018-08-23T21:14:54.463Z,18.70
2018-08-23T21:17:23.170Z,18.60
2018-08-23T21:19:52.104Z,18.60
2018-08-23T21:22:21.835Z,18.50
2018-08-23T21:24:52.077Z,18.50
2018-08-23T21:27:20.980Z,18.30
2018-08-23T21:29:49.948Z,18.30
2018-08-23T21:32:21.155Z,18.30
2018-08-23T21:34:54.187Z,18.20
2018-08-23T21:37:23.753Z,18.20
2018-08-23T21:39:52.648Z,18.20
2018-08-23T21:42:22.749Z,18.20
2018-08-23T21:44:51.822Z,18.10
2018-08-23T21:47:21.238Z,18.10
2018-08-23T21:49:50.515Z,18.00
2018-08-23T21:52:20.099Z,18.00
2018-08-23T21:54:49.637Z,17.90
2018-08-23T21:57:19.032Z,17.80
2018-08-23T21:59:49.731Z,17.80
2018-08-23T22:02:19.569Z,17.80
2018-08-23T22:04:56.121Z,17.70
2018-08-23T22:07:25.777Z,17.70
2018-08-23T22:09:55.680Z,17.70
2018-08-23T22:12:26.104Z,17.70
2018-08-23T22:14:56.302Z,17.60
2018-08-23T22:17:25.815Z,17.60
2018-08-23T22:19:54.927Z,17.60
2018-08-23T22:22:23.956Z,17.50
2018-08-23T22:24:52.996Z,17.50
2018-08-23T22:27:22.091Z,17.50
2018-08-23T22:29:51.037Z,17.60
2018-08-23T22:32:20.014Z,17.70
2018-08-23T22:34:49.490Z,17.80
2018-08-23T22:37:18.507Z,17.80
2018-08-23T22:39:47.377Z,17.80
2018-08-23T22:42:16.347Z,17.80
2018-08-23T22:44:45.123Z,17.80
2018-08-23T22:47:13.841Z,17.80
2018-08-23T22:49:42.471Z,17.80
2018-08-23T22:52:11.246Z,17.80
2018-08-23T22:54:40.044Z,17.80
2018-08-23T22:57:08.757Z,17.70
2018-08-23T22:59:37.502Z,17.60
2018-08-23T23:02:06.404Z,17.50
2018-08-23T23:04:35.019Z,17.50
2018-08-23T23:07:08.605Z,17.50
2018-08-23T23:09:37.411Z,17.50
2018-08-23T23:12:07.905Z,17.40
2018-08-23T23:14:38.132Z,17.40
2018-08-23T23:17:07.788Z,17.40
2018-08-23T23:19:36.590Z,17.30
2018-08-23T23:22:05.608Z,17.30
2018-08-23T23:25:05.159Z,17.30
2018-08-23T23:27:34.111Z,17.30
2018-08-23T23:30:02.823Z,17.30
2018-08-23T23:32:31.597Z,17.30
2018-08-23T23:35:00.286Z,17.30
2018-08-23T23:37:29.097Z,17.30
2018-08-23T23:39:57.863Z,17.30
2018-08-23T23:42:26.489Z,17.30
2018-08-23T23:44:55.131Z,17.30
2018-08-23T23:47:23.814Z,17.40
2018-08-23T23:49:53.353Z,17.40
2018-08-23T23:52:21.939Z,17.40
2018-08-23T23:54:50.595Z,17.30
2018-08-23T23:57:19.224Z,17.30
2018-08-23T23:59:48.097Z,17.20
